createdAt,value
2018-07-04T00:00:18.624Z,24.79
2018-07-04T00:01:19.387Z,24.79
2018-07-04T00:02:20.164Z,24.79
2018-07-04T00:03:20.934Z,24.79
2018-07-04T00:04:21.705Z,24.79
2018-07-04T00:05:22.508Z,24.79
2018-07-04T00:06:23.276Z,24.78
2018-07-04T00:07:24.060Z,24.77
2018-07-04T00:08:24.820Z,24.76
2018-07-04T00:09:25.610Z,24.75
2018-07-04T00:10:26.403Z,24.74
2018-07-04T00:11:27.177Z,24.73
2018-07-04T00:12:27.956Z,24.71
2018-07-04T00:13:28.723Z,24.71
2018-07-04T00:14:29.509Z,24.70
2018-07-04T00:15:30.313Z,24.70
2018-07-04T00:16:31.074Z,24.69
2018-07-04T00:17:31.844Z,24.68
2018-07-04T00:18:32.634Z,24.68
2018-07-04T00:19:33.395Z,24.68
2018-07-04T00:20:34.613Z,24.67
2018-07-04T00:21:34.833Z,24.65
2018-07-04T00:26:32.012Z,24.43
2018-07-04T00:27:33.780Z,24.40
2018-07-04T00:28:34.565Z,24.40
2018-07-04T00:29:35.344Z,24.39
2018-07-04T00:30:36.104Z,24.39
2018-07-04T00:31:36.899Z,24.38
2018-07-04T00:32:37.677Z,24.37
2018-07-04T00:33:38.449Z,24.38
2018-07-04T00:34:39.217Z,24.38
2018-07-04T00:35:39.993Z,24.38
2018-07-04T00:36:44.300Z,24.39
2018-07-04T00:37:41.069Z,24.39
2018-07-04T00:38:41.837Z,24.38
2018-07-04T00:39:42.608Z,24.37
2018-07-04T00:40:43.389Z,24.35
2018-07-04T00:41:44.188Z,24.34
2018-07-04T00:42:44.959Z,24.32
2018-07-04T00:43:45.745Z,24.30
2018-07-04T00:44:46.512Z,24.28
2018-07-04T00:45:47.310Z,24.26
2018-07-04T00:46:48.098Z,24.25
2018-07-04T00:47:48.861Z,24.23
2018-07-04T00:48:49.636Z,24.22
2018-07-04T00:49:50.414Z,24.20
2018-07-04T00:50:51.190Z,24.18
2018-07-04T00:51:51.984Z,24.17
2018-07-04T00:52:52.756Z,24.16
2018-07-04T00:53:53.536Z,24.15
2018-07-04T00:54:54.304Z,24.13
2018-07-04T00:55:55.085Z,24.12
2018-07-04T00:56:55.875Z,24.11
2018-07-04T00:57:56.655Z,24.10
2018-07-04T00:58:57.425Z,24.08
2018-07-04T00:59:58.196Z,24.06
2018-07-04T01:00:58.966Z,24.04
2018-07-04T01:01:59.784Z,24.03
2018-07-04T01:03:00.554Z,24.01
2018-07-04T01:04:01.334Z,24.00
2018-07-04T01:05:02.111Z,23.99
2018-07-04T01:06:02.874Z,23.98
2018-07-04T01:07:03.670Z,23.96
2018-07-04T01:08:04.456Z,23.95
2018-07-04T01:09:05.225Z,23.93
2018-07-04T01:10:05.995Z,23.91
2018-07-04T01:11:06.775Z,23.89
2018-07-04T01:12:07.568Z,23.88
2018-07-04T01:13:08.374Z,23.87
2018-07-04T01:14:09.114Z,23.86
2018-07-04T01:15:09.897Z,23.86
2018-07-04T01:16:10.666Z,23.85
2018-07-04T01:17:11.468Z,23.85
2018-07-04T01:18:12.247Z,23.84
2018-07-04T01:19:13.022Z,23.84
2018-07-04T01:20:13.796Z,23.83
2018-07-04T01:21:14.567Z,23.82
2018-07-04T01:22:15.363Z,23.81
2018-07-04T01:23:16.143Z,23.79
2018-07-04T01:24:16.914Z,23.77
2018-07-04T01:25:17.686Z,23.76
2018-07-04T01:26:18.466Z,23.75
2018-07-04T01:27:19.261Z,23.74
2018-07-04T01:28:20.059Z,23.73
2018-07-04T01:29:20.819Z,23.72
2018-07-04T01:30:21.596Z,23.71
2018-07-04T01:31:22.376Z,23.70
2018-07-04T01:32:23.172Z,23.69
2018-07-04T01:33:24.041Z,23.68
2018-07-04T01:34:23.744Z,23.67
2018-07-04T01:35:25.513Z,23.66
2018-07-04T01:36:26.291Z,23.65
2018-07-04T01:37:27.089Z,23.64
2018-07-04T01:38:27.861Z,23.63
2018-07-04T01:39:28.653Z,23.63
2018-07-04T01:40:29.418Z,23.63
2018-07-04T01:41:30.193Z,23.63
2018-07-04T01:42:31.011Z,23.62
2018-07-04T01:43:31.770Z,23.62
2018-07-04T01:44:32.548Z,23.62
2018-07-04T01:45:33.318Z,23.61
2018-07-04T01:46:34.106Z,23.60
2018-07-04T01:47:34.900Z,23.60
2018-07-04T01:48:35.675Z,23.60
2018-07-04T01:49:36.446Z,23.59
2018-07-04T01:50:37.230Z,23.59
2018-07-04T01:51:37.998Z,23.59
2018-07-04T01:52:38.800Z,23.58
2018-07-04T01:53:39.609Z,23.58
2018-07-04T01:54:40.381Z,23.57
2018-07-04T01:55:41.148Z,23.57
2018-07-04T01:56:41.968Z,23.56
2018-07-04T01:57:41.737Z,23.55
2018-07-04T01:58:43.520Z,23.55
2018-07-04T01:59:44.324Z,23.54
2018-07-04T02:00:44.059Z,23.53
2018-07-04T02:01:45.844Z,23.52
2018-07-04T02:02:46.633Z,23.51
2018-07-04T02:03:47.421Z,23.51
2018-07-04T02:04:50.607Z,23.50
2018-07-04T02:05:47.975Z,23.49
2018-07-04T02:06:49.742Z,23.49
2018-07-04T02:07:50.559Z,23.49
2018-07-04T02:08:51.332Z,23.48
2018-07-04T02:09:52.100Z,23.48
2018-07-04T02:10:52.895Z,23.47
2018-07-04T02:11:53.673Z,23.47
2018-07-04T02:12:54.465Z,23.47
2018-07-04T02:13:55.244Z,23.46
2018-07-04T02:14:56.066Z,23.46
2018-07-04T02:15:55.830Z,23.45
2018-07-04T02:16:57.574Z,23.44
2018-07-04T02:17:58.796Z,23.44
2018-07-04T02:20:53.499Z,23.38
2018-07-04T02:21:54.270Z,23.36
2018-07-04T02:22:55.045Z,23.36
2018-07-04T02:23:55.848Z,23.35
2018-07-04T02:24:56.610Z,23.35
2018-07-04T02:25:57.393Z,23.34
2018-07-04T02:26:58.155Z,23.34
2018-07-04T02:27:58.924Z,23.33
2018-07-04T02:28:59.749Z,23.33
2018-07-04T02:30:00.504Z,23.32
2018-07-04T02:31:01.274Z,23.32
2018-07-04T02:32:02.042Z,23.32
2018-07-04T02:33:02.815Z,23.32
2018-07-04T02:34:03.615Z,23.31
2018-07-04T02:35:04.397Z,23.31
2018-07-04T02:36:05.168Z,23.30
2018-07-04T02:37:05.954Z,23.29
2018-07-04T02:38:06.711Z,23.28
2018-07-04T02:39:07.508Z,23.27
2018-07-04T02:40:08.278Z,23.26
2018-07-04T02:41:09.052Z,23.26
2018-07-04T02:42:09.822Z,23.25
2018-07-04T02:43:10.591Z,23.25
2018-07-04T02:44:11.394Z,23.24
2018-07-04T02:45:12.169Z,23.23
2018-07-04T02:46:12.938Z,23.22
2018-07-04T02:47:13.727Z,23.21
2018-07-04T02:48:14.489Z,23.19
2018-07-04T02:49:15.287Z,23.18
2018-07-04T02:50:16.048Z,23.17
2018-07-04T02:51:16.835Z,23.16
2018-07-04T02:52:17.595Z,23.15
2018-07-04T02:53:18.382Z,23.14
2018-07-04T02:54:19.172Z,23.13
2018-07-04T02:55:19.943Z,23.12
2018-07-04T02:56:20.719Z,23.11
2018-07-04T02:57:21.493Z,23.10
2018-07-04T02:58:22.265Z,23.09
2018-07-04T02:59:23.068Z,23.07
2018-07-04T03:00:23.835Z,23.06
2018-07-04T03:01:24.602Z,23.06
2018-07-04T03:02:25.383Z,23.05
2018-07-04T03:03:26.171Z,23.05
2018-07-04T03:04:26.971Z,23.04
2018-07-04T03:05:27.722Z,23.04
2018-07-04T03:06:28.497Z,23.04
2018-07-04T03:07:29.268Z,23.04
2018-07-04T03:08:30.045Z,23.03
2018-07-04T03:09:30.843Z,23.03
2018-07-04T03:10:31.618Z,23.01
2018-07-04T03:11:32.395Z,23.00
2018-07-04T03:12:33.165Z,23.00
2018-07-04T03:13:33.940Z,22.99
2018-07-04T03:14:34.730Z,22.99
2018-07-04T03:15:35.502Z,22.99
2018-07-04T03:16:36.282Z,22.98
2018-07-04T03:17:37.056Z,22.97
2018-07-04T03:18:37.830Z,22.97
2018-07-04T03:19:38.628Z,22.95
2018-07-04T03:20:39.402Z,22.94
2018-07-04T03:21:40.173Z,22.93
2018-07-04T03:22:40.946Z,22.92
2018-07-04T03:23:41.727Z,22.92
2018-07-04T03:24:42.526Z,22.91
2018-07-04T03:25:43.299Z,22.90
2018-07-04T03:26:44.073Z,22.90
2018-07-04T03:27:44.843Z,22.90
2018-07-04T03:28:45.620Z,22.89
2018-07-04T03:29:46.429Z,22.89
2018-07-04T03:30:47.201Z,22.89
2018-07-04T03:31:47.971Z,22.88
2018-07-04T03:32:48.751Z,22.88
2018-07-04T03:33:51.691Z,22.87
2018-07-04T03:34:49.335Z,22.87
2018-07-04T03:35:51.122Z,22.87
2018-07-04T03:36:51.880Z,22.86
2018-07-04T03:37:52.651Z,22.85
2018-07-04T03:38:53.428Z,22.84
2018-07-04T03:39:54.226Z,22.83
2018-07-04T03:40:55.005Z,22.82
2018-07-04T03:41:55.774Z,22.81
2018-07-04T03:42:56.568Z,22.80
2018-07-04T03:43:57.344Z,22.80
2018-07-04T03:44:58.141Z,22.79
2018-07-04T03:45:58.911Z,22.79
2018-07-04T03:46:59.679Z,22.78
2018-07-04T03:48:00.455Z,22.78
2018-07-04T03:49:01.226Z,22.77
2018-07-04T03:50:02.024Z,22.76
2018-07-04T03:51:02.802Z,22.75
2018-07-04T03:52:03.575Z,22.75
2018-07-04T03:53:04.352Z,22.74
2018-07-04T03:54:05.120Z,22.73
2018-07-04T03:55:05.928Z,22.73
2018-07-04T03:56:06.694Z,22.73
2018-07-04T03:57:07.469Z,22.72
2018-07-04T03:58:08.279Z,22.72
2018-07-04T03:59:08.014Z,22.71
2018-07-04T04:00:09.817Z,22.70
2018-07-04T04:01:10.599Z,22.70
2018-07-04T04:02:11.367Z,22.69
2018-07-04T04:03:12.152Z,22.69
2018-07-04T04:04:12.916Z,22.69
2018-07-04T04:05:13.715Z,22.69
2018-07-04T04:06:14.493Z,22.68
2018-07-04T04:07:15.271Z,22.68
2018-07-04T04:08:15.049Z,22.67
2018-07-04T04:09:16.806Z,22.67
2018-07-04T04:10:18.004Z,22.66
2018-07-04T04:24:55.721Z,22.75
2018-07-04T04:25:56.517Z,22.74
2018-07-04T04:26:57.288Z,22.74
2018-07-04T04:27:58.059Z,22.74
2018-07-04T04:28:58.839Z,22.74
2018-07-04T04:29:59.621Z,22.73
2018-07-04T04:31:00.421Z,22.73
2018-07-04T04:32:01.201Z,22.73
2018-07-04T04:33:01.965Z,22.72
2018-07-04T04:34:02.732Z,22.72
2018-07-04T04:35:03.506Z,22.72
2018-07-04T04:36:04.304Z,22.72
2018-07-04T04:37:05.073Z,22.72
2018-07-04T04:38:05.853Z,22.72
2018-07-04T04:39:06.631Z,22.72
2018-07-04T04:40:07.404Z,22.72
2018-07-04T04:41:08.194Z,22.72
2018-07-04T04:42:08.968Z,22.73
2018-07-04T04:43:09.739Z,22.73
2018-07-04T04:44:10.512Z,22.73
2018-07-04T04:45:11.284Z,22.73
2018-07-04T04:46:12.080Z,22.74
2018-07-04T04:47:12.857Z,22.75
2018-07-04T04:48:13.625Z,22.75
2018-07-04T04:49:14.400Z,22.75
2018-07-04T04:50:15.176Z,22.74
2018-07-04T04:51:15.970Z,22.74
2018-07-04T04:52:15.745Z,22.74
2018-07-04T04:53:17.517Z,22.74
2018-07-04T04:54:18.297Z,22.76
2018-07-04T04:55:19.063Z,22.77
2018-07-04T04:56:19.863Z,22.78
2018-07-04T04:57:20.635Z,22.79
2018-07-04T04:58:21.410Z,22.80
2018-07-04T04:59:22.184Z,22.81
2018-07-04T05:00:22.959Z,22.83
2018-07-04T05:01:23.761Z,22.84
2018-07-04T05:02:24.532Z,22.85
2018-07-04T05:03:25.304Z,22.86
2018-07-04T05:04:26.079Z,22.88
2018-07-04T05:05:26.855Z,22.88
2018-07-04T05:06:27.652Z,22.88
2018-07-04T05:07:28.423Z,22.89
2018-07-04T05:08:29.200Z,22.89
2018-07-04T05:09:29.968Z,22.89
2018-07-04T05:10:30.760Z,22.90
2018-07-04T05:11:31.551Z,22.92
2018-07-04T05:12:31.323Z,22.94
2018-07-04T05:13:33.104Z,22.96
2018-07-04T05:14:33.870Z,22.97
2018-07-04T05:15:34.648Z,22.99
2018-07-04T05:16:35.442Z,23.00
2018-07-04T05:17:36.215Z,23.02
2018-07-04T05:18:36.987Z,23.03
2018-07-04T05:19:37.763Z,23.05
2018-07-04T05:20:38.539Z,23.07
2018-07-04T05:21:39.336Z,23.09
2018-07-04T05:22:40.159Z,23.11
2018-07-04T05:23:39.884Z,23.12
2018-07-04T05:24:41.653Z,23.13
2018-07-04T05:25:42.429Z,23.15
2018-07-04T05:26:43.226Z,23.16
2018-07-04T05:27:44.007Z,23.16
2018-07-04T05:28:44.775Z,23.17
2018-07-04T05:29:45.557Z,23.18
2018-07-04T05:30:46.357Z,23.19
2018-07-04T05:31:47.120Z,23.20
2018-07-04T05:32:47.901Z,23.21
2018-07-04T05:33:48.667Z,23.21
2018-07-04T05:34:49.438Z,23.22
2018-07-04T05:35:50.214Z,23.22
2018-07-04T05:36:51.008Z,23.23
2018-07-04T05:37:51.783Z,23.24
2018-07-04T05:38:52.555Z,23.25
2018-07-04T05:39:53.329Z,23.27
2018-07-04T05:40:53.123Z,23.29
2018-07-04T05:41:54.904Z,23.30
2018-07-04T05:42:55.675Z,23.32
2018-07-04T05:43:56.447Z,23.33
2018-07-04T05:44:57.221Z,23.34
2018-07-04T05:45:57.996Z,23.35
2018-07-04T05:46:58.801Z,23.35
2018-07-04T05:47:59.576Z,23.36
2018-07-04T05:49:00.350Z,23.37
2018-07-04T05:50:01.114Z,23.39
2018-07-04T05:51:01.890Z,23.40
2018-07-04T05:52:02.686Z,23.42
2018-07-04T05:53:03.473Z,23.44
2018-07-04T05:54:04.243Z,23.47
2018-07-04T05:55:05.017Z,23.49
2018-07-04T05:56:05.805Z,23.52
2018-07-04T05:57:06.594Z,23.54
2018-07-04T05:58:07.370Z,23.55
2018-07-04T05:59:08.146Z,23.57
2018-07-04T06:00:08.915Z,23.60
2018-07-04T06:01:09.696Z,23.62
2018-07-04T06:02:10.488Z,23.65
2018-07-04T06:03:11.267Z,23.67
2018-07-04T06:04:12.032Z,23.69
2018-07-04T06:05:12.811Z,23.71
2018-07-04T06:06:13.592Z,23.73
2018-07-04T06:07:14.402Z,23.76
2018-07-04T06:08:15.163Z,23.79
2018-07-04T06:09:15.933Z,23.82
2018-07-04T06:10:16.706Z,23.85
2018-07-04T06:11:17.479Z,23.87
2018-07-04T06:12:18.282Z,23.90
2018-07-04T06:13:19.056Z,23.92
2018-07-04T06:14:19.826Z,23.94
2018-07-04T06:15:20.988Z,23.96
2018-07-04T06:16:21.724Z,23.98
2018-07-04T06:29:24.948Z,24.62
2018-07-04T06:30:25.716Z,24.62
2018-07-04T06:31:26.489Z,24.62
2018-07-04T06:32:27.316Z,24.63
2018-07-04T06:33:27.037Z,24.64
2018-07-04T06:34:28.832Z,24.64
2018-07-04T06:35:29.612Z,24.66
2018-07-04T06:36:30.376Z,24.67
2018-07-04T06:37:31.149Z,24.68
2018-07-04T06:38:31.920Z,24.70
2018-07-04T06:39:32.720Z,24.71
2018-07-04T06:40:33.493Z,24.73
2018-07-04T06:41:34.269Z,24.75
2018-07-04T06:42:35.041Z,24.77
2018-07-04T06:43:35.822Z,24.79
2018-07-04T06:44:36.625Z,24.81
2018-07-04T06:45:37.392Z,24.83
2018-07-04T06:46:38.173Z,24.85
2018-07-04T06:47:38.940Z,24.88
2018-07-04T06:48:39.714Z,24.90
2018-07-04T06:49:40.517Z,24.93
2018-07-04T06:50:41.284Z,24.96
2018-07-04T06:51:42.058Z,24.99
2018-07-04T06:52:42.831Z,25.02
2018-07-04T06:53:43.601Z,25.05
2018-07-04T06:54:44.406Z,25.08
2018-07-04T06:55:45.172Z,25.11
2018-07-04T06:56:45.952Z,25.13
2018-07-04T06:57:46.722Z,25.16
2018-07-04T06:58:47.499Z,25.19
2018-07-04T06:59:48.290Z,25.22
2018-07-04T07:00:49.058Z,25.25
2018-07-04T07:01:49.859Z,25.27
2018-07-04T07:02:50.609Z,25.30
2018-07-04T07:03:51.382Z,25.33
2018-07-04T07:04:52.178Z,25.36
2018-07-04T07:05:52.947Z,25.39
2018-07-04T07:06:53.720Z,25.41
2018-07-04T07:07:54.493Z,25.43
2018-07-04T07:08:55.274Z,25.46
2018-07-04T07:09:56.066Z,25.50
2018-07-04T07:10:56.836Z,25.53
2018-07-04T07:11:57.612Z,25.56
2018-07-04T07:12:58.383Z,25.60
2018-07-04T07:13:59.157Z,25.64
2018-07-04T07:14:59.963Z,25.67
2018-07-04T07:16:00.744Z,25.71
2018-07-04T07:17:01.514Z,25.75
2018-07-04T07:18:02.282Z,25.79
2018-07-04T07:19:03.063Z,25.82
2018-07-04T07:20:03.860Z,25.86
2018-07-04T07:21:03.642Z,25.90
2018-07-04T07:22:05.405Z,25.94
2018-07-04T07:23:06.184Z,25.98
2018-07-04T07:24:06.977Z,26.02
2018-07-04T07:25:07.749Z,26.06
2018-07-04T07:26:08.524Z,26.10
2018-07-04T07:27:09.295Z,26.13
2018-07-04T07:28:10.067Z,26.16
2018-07-04T07:29:10.845Z,26.20
2018-07-04T07:30:11.641Z,26.23
2018-07-04T07:31:12.414Z,26.26
2018-07-04T07:32:13.194Z,26.29
2018-07-04T07:33:13.968Z,26.33
2018-07-04T07:34:14.835Z,26.36
2018-07-04T07:35:14.538Z,26.38
2018-07-04T07:36:16.309Z,26.41
2018-07-04T07:37:17.086Z,26.44
2018-07-04T07:38:16.854Z,26.47
2018-07-04T07:39:18.631Z,26.51
2018-07-04T07:40:19.434Z,26.54
2018-07-04T07:41:20.205Z,26.58
2018-07-04T07:42:20.979Z,26.62
2018-07-04T07:43:21.765Z,26.66
2018-07-04T07:44:22.528Z,26.70
2018-07-04T07:45:23.320Z,26.74
2018-07-04T07:46:24.174Z,26.79
2018-07-04T07:47:23.944Z,26.83
2018-07-04T07:48:25.721Z,26.88
2018-07-04T07:49:26.500Z,26.92
2018-07-04T07:50:27.295Z,26.97
2018-07-04T07:51:28.065Z,27.03
2018-07-04T07:52:28.842Z,27.08
2018-07-04T07:53:29.610Z,27.13
2018-07-04T07:54:30.458Z,27.18
2018-07-04T07:55:30.179Z,27.23
2018-07-04T07:56:31.965Z,27.28
2018-07-04T07:57:32.736Z,27.34
2018-07-04T07:58:33.512Z,27.41
2018-07-04T07:59:34.286Z,27.49
2018-07-04T08:00:35.081Z,27.57
2018-07-04T08:01:35.857Z,27.67
2018-07-04T08:02:36.625Z,27.76
2018-07-04T08:03:37.403Z,27.86
2018-07-04T08:04:38.176Z,27.96
2018-07-04T08:05:38.976Z,28.07
2018-07-04T08:06:39.990Z,28.17
2018-07-04T08:07:39.685Z,28.27
2018-07-04T08:08:41.459Z,28.37
2018-07-04T08:09:42.237Z,28.47
2018-07-04T08:10:43.033Z,28.56
2018-07-04T08:11:43.803Z,28.66
2018-07-04T08:12:44.635Z,28.76
2018-07-04T08:13:44.353Z,28.85
2018-07-04T08:14:46.126Z,28.93
2018-07-04T08:15:46.919Z,29.01
2018-07-04T08:16:47.695Z,29.09
2018-07-04T08:17:48.474Z,29.15
2018-07-04T08:18:49.274Z,29.21
2018-07-04T08:19:49.022Z,29.25
2018-07-04T08:20:50.818Z,29.28
2018-07-04T08:21:51.590Z,29.30
2018-07-04T08:22:52.363Z,29.29
2018-07-04T08:23:56.383Z,29.28
2018-07-04T08:24:53.737Z,29.27
2018-07-04T08:25:52.954Z,29.30
2018-07-04T08:27:17.550Z,29.53
2018-07-04T08:28:18.318Z,29.48
2018-07-04T08:29:19.089Z,29.47
2018-07-04T08:30:19.862Z,29.44
2018-07-04T08:31:20.667Z,29.41
2018-07-04T08:32:21.441Z,29.37
2018-07-04T08:33:22.270Z,29.34
2018-07-04T08:34:22.165Z,29.31
2018-07-04T08:35:22.863Z,29.29
2018-07-04T08:36:24.660Z,29.27
2018-07-04T08:37:25.424Z,29.24
2018-07-04T08:38:26.195Z,29.22
2018-07-04T08:39:26.973Z,29.19
2018-07-04T08:40:27.745Z,29.19
2018-07-04T08:41:28.574Z,29.22
2018-07-04T08:42:29.339Z,29.25
2018-07-04T08:43:30.120Z,29.27
2018-07-04T08:44:30.882Z,29.28
2018-07-04T08:45:31.657Z,29.30
2018-07-04T08:46:32.453Z,29.31
2018-07-04T08:47:33.226Z,29.34
2018-07-04T08:48:33.992Z,29.37
2018-07-04T08:49:34.765Z,29.40
2018-07-04T08:50:35.577Z,29.42
2018-07-04T08:51:35.336Z,29.43
2018-07-04T08:52:36.139Z,29.44
2018-07-04T08:53:36.883Z,29.43
2018-07-04T08:54:38.655Z,29.43
2018-07-04T08:55:39.426Z,29.43
2018-07-04T08:56:40.225Z,29.42
2018-07-04T08:57:40.997Z,29.42
2018-07-04T08:58:41.848Z,29.41
2018-07-04T08:59:41.546Z,29.43
2018-07-04T09:00:43.318Z,29.45
2018-07-04T09:01:44.115Z,29.49
2018-07-04T09:02:44.888Z,29.50
2018-07-04T09:03:45.665Z,29.50
2018-07-04T09:04:46.432Z,29.49
2018-07-04T09:05:47.216Z,29.46
2018-07-04T09:06:48.013Z,29.43
2018-07-04T09:07:48.777Z,29.39
2018-07-04T09:08:49.550Z,29.35
2018-07-04T09:09:50.322Z,29.31
2018-07-04T09:10:51.099Z,29.28
2018-07-04T09:11:51.937Z,29.25
2018-07-04T09:12:51.666Z,29.23
2018-07-04T09:13:53.437Z,29.24
2018-07-04T09:14:54.214Z,29.27
2018-07-04T09:15:54.984Z,29.31
2018-07-04T09:16:55.782Z,29.38
2018-07-04T09:17:56.556Z,29.45
2018-07-04T09:18:57.352Z,29.52
2018-07-04T09:19:58.114Z,29.58
2018-07-04T09:20:58.909Z,29.58
2018-07-04T09:21:59.691Z,29.56
2018-07-04T09:23:00.467Z,29.52
2018-07-04T09:24:01.239Z,29.46
2018-07-04T09:25:02.012Z,29.36
2018-07-04T09:26:02.786Z,29.27
2018-07-04T09:27:03.593Z,29.19
2018-07-04T09:28:04.364Z,29.10
2018-07-04T09:29:05.132Z,29.01
2018-07-04T09:30:05.915Z,28.93
2018-07-04T09:31:06.690Z,28.85
2018-07-04T09:32:07.478Z,28.77
2018-07-04T09:33:08.258Z,28.68
2018-07-04T09:34:09.029Z,28.61
2018-07-04T09:35:09.800Z,28.53
2018-07-04T09:36:10.579Z,28.45
2018-07-04T09:37:11.373Z,28.36
2018-07-04T09:38:12.145Z,28.29
2018-07-04T09:39:12.930Z,28.21
2018-07-04T09:40:13.694Z,28.14
2018-07-04T09:41:14.473Z,28.07
2018-07-04T09:42:15.279Z,28.01
2018-07-04T09:43:16.046Z,27.94
2018-07-04T09:44:16.819Z,27.87
2018-07-04T09:45:17.598Z,27.81
2018-07-04T09:46:18.377Z,27.75
2018-07-04T09:47:19.168Z,27.69
2018-07-04T09:48:19.950Z,27.64
2018-07-04T09:49:20.712Z,27.59
2018-07-04T09:50:21.488Z,27.53
2018-07-04T09:51:22.260Z,27.48
2018-07-04T09:52:23.062Z,27.43
2018-07-04T09:53:23.830Z,27.38
2018-07-04T09:54:24.609Z,27.34
2018-07-04T09:55:25.381Z,27.29
2018-07-04T09:56:26.161Z,27.24
2018-07-04T09:57:26.954Z,27.20
2018-07-04T09:58:27.723Z,27.15
2018-07-04T09:59:28.495Z,27.11
2018-07-04T10:00:29.274Z,27.06
2018-07-04T10:01:30.047Z,27.01
2018-07-04T10:02:30.846Z,26.95
2018-07-04T10:03:31.707Z,26.90
2018-07-04T10:04:31.449Z,26.85
2018-07-04T10:05:33.218Z,26.79
2018-07-04T10:06:33.992Z,26.74
2018-07-04T10:07:34.794Z,26.69
2018-07-04T10:08:35.571Z,26.64
2018-07-04T10:09:36.337Z,26.59
2018-07-04T10:10:37.294Z,26.54
2018-07-04T10:11:36.978Z,26.49
2018-07-04T10:12:38.794Z,26.43
2018-07-04T10:13:38.782Z,26.38
2018-07-04T10:14:39.480Z,26.32
2018-07-04T10:15:41.259Z,26.28
2018-07-04T10:16:42.029Z,26.23
2018-07-04T10:17:43.091Z,26.18
2018-07-04T10:18:42.784Z,26.14
2018-07-04T10:19:44.559Z,26.09
2018-07-04T10:20:45.330Z,26.03
2018-07-04T10:21:46.100Z,25.97
2018-07-04T10:22:46.948Z,25.91
2018-07-04T10:23:47.700Z,25.85
2018-07-04T10:24:48.856Z,25.80
2018-07-04T10:26:23.416Z,24.69
2018-07-04T10:27:24.180Z,24.66
2018-07-04T10:28:24.968Z,24.66
2018-07-04T10:29:25.739Z,24.65
2018-07-04T10:30:26.517Z,24.65
2018-07-04T10:31:27.294Z,24.64
2018-07-04T10:32:28.063Z,24.63
2018-07-04T10:33:28.853Z,24.61
2018-07-04T10:34:29.627Z,24.60
2018-07-04T10:35:30.403Z,24.59
2018-07-04T10:36:31.175Z,24.57
2018-07-04T10:37:32.003Z,24.55
2018-07-04T10:38:31.741Z,24.52
2018-07-04T10:39:33.516Z,24.48
2018-07-04T10:40:34.292Z,24.45
2018-07-04T10:41:35.073Z,24.40
2018-07-04T10:42:35.835Z,24.35
2018-07-04T10:43:36.635Z,24.31
2018-07-04T10:44:37.400Z,24.27
2018-07-04T10:45:38.185Z,24.23
2018-07-04T10:46:38.965Z,24.21
2018-07-04T10:47:39.737Z,24.21
2018-07-04T10:48:40.529Z,24.21
2018-07-04T10:49:41.304Z,24.21
2018-07-04T10:50:42.066Z,24.22
2018-07-04T10:51:42.849Z,24.22
2018-07-04T10:52:43.613Z,24.23
2018-07-04T10:53:44.416Z,24.23
2018-07-04T10:54:45.198Z,24.24
2018-07-04T10:55:45.975Z,24.24
2018-07-04T10:56:46.741Z,24.25
2018-07-04T10:57:47.519Z,24.27
2018-07-04T10:58:48.379Z,24.30
2018-07-04T10:59:48.124Z,24.32
2018-07-04T11:00:49.890Z,24.35
2018-07-04T11:01:50.667Z,24.39
2018-07-04T11:02:51.437Z,24.43
2018-07-04T11:03:52.239Z,24.47
2018-07-04T11:04:54.016Z,24.51
2018-07-04T11:05:53.782Z,24.56
2018-07-04T11:06:54.554Z,24.60
2018-07-04T11:07:55.330Z,24.66
2018-07-04T11:08:56.133Z,24.71
2018-07-04T11:09:56.904Z,24.78
2018-07-04T11:10:57.677Z,24.84
2018-07-04T11:11:58.452Z,24.90
2018-07-04T11:12:59.220Z,24.96
2018-07-04T11:14:00.030Z,25.02
2018-07-04T11:15:00.798Z,25.09
2018-07-04T11:16:01.573Z,25.15
2018-07-04T11:17:02.395Z,25.21
2018-07-04T11:18:02.120Z,25.27
2018-07-04T11:19:03.921Z,25.33
2018-07-04T11:20:04.688Z,25.38
2018-07-04T11:21:05.464Z,25.44
2018-07-04T11:22:06.235Z,25.49
2018-07-04T11:23:07.011Z,25.54
2018-07-04T11:24:07.818Z,25.60
2018-07-04T11:25:08.589Z,25.66
2018-07-04T11:26:09.359Z,25.70
2018-07-04T11:27:10.133Z,25.75
2018-07-04T11:28:10.902Z,25.80
2018-07-04T11:29:12.054Z,25.85
2018-07-04T11:30:11.008Z,25.90
2018-07-04T11:31:11.691Z,25.95
2018-07-04T11:32:13.681Z,26.01
2018-07-04T11:33:13.614Z,26.06
2018-07-04T11:34:14.352Z,26.12
2018-07-04T11:35:16.112Z,26.18
2018-07-04T11:36:16.891Z,26.23
2018-07-04T11:37:17.659Z,26.29
2018-07-04T11:38:18.440Z,26.34
2018-07-04T11:39:19.231Z,26.39
2018-07-04T11:40:20.005Z,26.44
2018-07-04T11:41:20.776Z,26.50
2018-07-04T11:42:21.555Z,26.55
2018-07-04T11:43:22.322Z,26.60
2018-07-04T11:44:23.124Z,26.65
2018-07-04T11:45:23.895Z,26.69
2018-07-04T11:46:24.693Z,26.74
2018-07-04T11:47:25.442Z,26.78
2018-07-04T11:48:26.418Z,26.82
2018-07-04T11:49:26.329Z,26.86
2018-07-04T11:50:28.097Z,26.90
2018-07-04T11:51:28.882Z,26.94
2018-07-04T11:52:29.658Z,26.98
2018-07-04T11:53:30.429Z,27.01
2018-07-04T11:54:31.220Z,27.05
2018-07-04T11:55:32.005Z,27.08
2018-07-04T11:56:32.822Z,27.12
2018-07-04T11:57:32.554Z,27.16
2018-07-04T11:58:34.505Z,27.19
2018-07-04T11:59:34.539Z,27.23
2018-07-04T12:00:35.280Z,27.26
2018-07-04T12:01:36.071Z,27.29
2018-07-04T12:02:36.827Z,27.32
2018-07-04T12:03:37.788Z,27.35
2018-07-04T12:04:37.514Z,27.38
2018-07-04T12:05:39.288Z,27.42
2018-07-04T12:06:40.063Z,27.46
2018-07-04T12:07:40.893Z,27.50
2018-07-04T12:08:40.647Z,27.54
2018-07-04T12:09:42.456Z,27.58
2018-07-04T12:10:43.400Z,27.61
2018-07-04T12:11:43.093Z,27.64
2018-07-04T12:12:44.866Z,27.68
2018-07-04T12:13:45.811Z,27.71
2018-07-04T12:14:45.536Z,27.75
2018-07-04T12:15:47.308Z,27.77
2018-07-04T12:16:48.081Z,27.79
2018-07-04T12:17:48.857Z,27.80
2018-07-04T12:18:49.625Z,27.82
2018-07-04T12:19:50.426Z,27.84
2018-07-04T12:20:51.255Z,27.85
2018-07-04T12:21:51.181Z,27.86
2018-07-04T12:22:51.882Z,27.87
2018-07-04T12:23:53.656Z,27.87
2018-07-04T12:24:54.445Z,27.88
2018-07-04T12:25:54.399Z,27.88
2018-07-04T12:26:55.150Z,27.88
2018-07-04T12:27:55.868Z,27.89
2018-07-04T12:28:57.639Z,27.88
2018-07-04T12:29:58.814Z,27.88
2018-07-04T12:30:59.261Z,27.87
2018-07-04T12:43:19.082Z,27.55
2018-07-04T12:44:19.835Z,27.54
2018-07-04T12:45:20.611Z,27.54
2018-07-04T12:46:21.409Z,27.53
2018-07-04T12:47:22.222Z,27.53
2018-07-04T12:48:21.964Z,27.53
2018-07-04T12:49:23.732Z,27.52
2018-07-04T12:50:24.499Z,27.52
2018-07-04T12:51:25.292Z,27.51
2018-07-04T12:52:26.062Z,27.50
2018-07-04T12:53:26.836Z,27.50
2018-07-04T12:54:27.658Z,27.48
2018-07-04T12:55:27.388Z,27.47
2018-07-04T12:56:29.191Z,27.46
2018-07-04T12:57:29.958Z,27.44
2018-07-04T12:58:30.734Z,27.43
2018-07-04T12:59:31.553Z,27.41
2018-07-04T13:00:31.283Z,27.40
2018-07-04T13:01:33.075Z,27.39
2018-07-04T13:02:33.845Z,27.37
2018-07-04T13:03:34.616Z,27.36
2018-07-04T13:04:35.407Z,27.35
2018-07-04T13:05:36.178Z,27.34
2018-07-04T13:06:37.727Z,27.33
2018-07-04T13:07:36.408Z,27.32
2018-07-04T13:08:38.192Z,27.31
2018-07-04T13:09:37.966Z,27.31
2018-07-04T13:10:42.883Z,27.30
2018-07-04T13:11:39.676Z,27.28
2018-07-04T13:12:40.461Z,27.27
2018-07-04T13:13:42.221Z,27.26
2018-07-04T13:14:43.012Z,27.25
2018-07-04T13:15:43.767Z,27.25
2018-07-04T13:16:44.576Z,27.24
2018-07-04T13:17:45.352Z,27.23
2018-07-04T13:18:46.129Z,27.22
2018-07-04T13:19:46.919Z,27.21
2018-07-04T13:20:47.742Z,27.21
2018-07-04T13:21:50.270Z,27.20
2018-07-04T13:22:49.054Z,27.19
2018-07-04T13:23:49.847Z,27.19
2018-07-04T13:24:49.594Z,27.18
2018-07-04T13:25:51.379Z,27.18
2018-07-04T13:26:52.169Z,27.18
2018-07-04T13:27:52.970Z,27.18
2018-07-04T13:28:53.715Z,27.18
2018-07-04T13:29:54.503Z,27.19
2018-07-04T13:30:55.262Z,27.20
2018-07-04T13:31:56.112Z,27.20
2018-07-04T13:32:55.830Z,27.22
2018-07-04T13:33:57.620Z,27.23
2018-07-04T13:34:58.395Z,27.24
2018-07-04T13:35:59.182Z,27.25
2018-07-04T13:36:59.964Z,27.27
2018-07-04T13:38:00.742Z,27.28
2018-07-04T13:39:01.519Z,27.30
2018-07-04T13:40:02.338Z,27.31
2018-07-04T13:41:02.063Z,27.33
2018-07-04T13:42:03.861Z,27.34
2018-07-04T13:43:04.669Z,27.36
2018-07-04T13:44:04.433Z,27.37
2018-07-04T13:45:06.218Z,27.39
2018-07-04T13:46:06.007Z,27.40